Airfield :
LOGIN :

Register | Disclaimer

   EN    FR    IT 

 










Legend :    VFR   Marginal VFR   IFR   Intensive IFR   Very Intensive IFR
Visi :
Ceiling :
>= 8 km
>= 3000ft
5 to 8 km
1000 to 3000 ft
1500m to 5 km
500 to 1000 ft
800 to 1500m
200 to 500 ft
< 800m
< 200 ft
Symbols :   Thunderstorms  Fog  Heavy snow  Heavy precipitations  Wind > 20 kt
SIGMETs :     Misc.  Thunderstorms  Icing  Turbulence  Mountain Waves  Volcanic Ashes







- Airport Elevation : 266 ft
- IATA code : NCL
- Download approach charts


EGNT - Newcastle

CURRENT METAR :
  • 241050Z 29008KT 250V320 9999 FEW030 15/08 Q1015

EXPIRED METARs :
  • 241020Z 26009KT 9999 FEW030 14/08 Q1015
  • 240950Z 26008KT 230V300 9999 FEW025 15/09 Q1015
  • 240920Z 27009KT 9999 FEW025 14/08 Q1015
  • 240850Z 28012KT 9999 FEW020 13/07 Q1015
  • 240820Z 27013KT 9999 FEW020 13/07 Q1015

TAF TAF EGNT
Valid from the 24 at 06:00 until the 25 at 06:00 UTC


240453Z 2406/2506 28012KT 9999 SCT040
PROB30 2411/2419 10006KT
BECMG 2503/2506 VRB03KT
ATIS : +44 191 214 3400
No reported NOTAMs for that airfield.



MET'MAP, your aeronautical weather chart ! - Copyright ORBIFLY December 2007 - Disclaimer

ORBIFLY MET'MAP TEAM :

Programming & Development : Alexandra Zaïnal
Concept & Development : Baudouin d'Aumeries
Co-Development & Prog : Marc-Olivier Méhu
Technical & hardware support : Manuel Goepfert

Contact : metmap@orbifly.com




SOURCES & CREDITS :

   NOAA